createdAt,value
2017-09-26T00:01:51.119Z,20.07
2017-09-26T00:04:18.661Z,20.20
2017-09-26T00:06:46.236Z,20.63
2017-09-26T00:09:13.765Z,21.73
2017-09-26T00:11:42.077Z,20.77
2017-09-26T00:14:09.610Z,21.40
2017-09-26T00:16:37.149Z,20.80
2017-09-26T00:19:05.483Z,20.40
2017-09-26T00:21:33.028Z,22.20
2017-09-26T00:24:00.592Z,20.63
2017-09-26T00:26:28.131Z,20.10
2017-09-26T00:28:55.698Z,21.43
2017-09-26T00:31:23.256Z,21.63
2017-09-26T00:33:50.818Z,21.50
2017-09-26T00:36:18.363Z,22.47
2017-09-26T00:38:48.287Z,22.60
2017-09-26T00:41:15.845Z,21.90
2017-09-26T00:43:43.417Z,22.07
2017-09-26T00:46:10.958Z,22.60
2017-09-26T00:48:39.290Z,23.20
2017-09-26T00:51:06.843Z,22.20
2017-09-26T00:53:34.393Z,22.40
2017-09-26T00:56:01.969Z,24.27
2017-09-26T00:58:29.506Z,23.40
2017-09-26T01:00:57.073Z,23.17
2017-09-26T01:03:38.310Z,23.80
2017-09-26T01:06:08.411Z,22.63
2017-09-26T01:08:35.967Z,23.37
2017-09-26T01:11:03.527Z,24.03
2017-09-26T01:13:31.057Z,25.83
2017-09-26T01:15:58.581Z,24.00
2017-09-26T01:18:26.899Z,24.30
2017-09-26T01:20:54.434Z,23.27
2017-09-26T01:23:21.991Z,22.50
2017-09-26T01:25:49.777Z,21.93
2017-09-26T01:28:17.324Z,25.00
2017-09-26T01:30:44.862Z,24.50
2017-09-26T01:33:13.180Z,23.00
2017-09-26T01:35:41.025Z,24.00
2017-09-26T01:38:09.599Z,22.10
2017-09-26T01:40:49.449Z,22.30
2017-09-26T01:43:17.093Z,24.87
2017-09-26T01:45:44.662Z,21.97
2017-09-26T01:48:13.276Z,23.40
2017-09-26T01:50:40.830Z,22.70
2017-09-26T01:53:13.386Z,21.77
2017-09-26T01:55:40.938Z,22.80
2017-09-26T01:58:10.063Z,23.27
2017-09-26T02:00:37.610Z,22.53
2017-09-26T02:03:05.203Z,22.10
2017-09-26T02:05:32.873Z,22.17
2017-09-26T02:08:00.534Z,23.20
2017-09-26T02:10:28.095Z,22.30
2017-09-26T02:12:55.639Z,22.60
2017-09-26T02:15:23.206Z,21.77
2017-09-26T02:17:50.875Z,23.60
2017-09-26T02:20:18.432Z,21.30
2017-09-26T02:22:46.010Z,24.23
2017-09-26T02:25:13.661Z,22.13
2017-09-26T02:27:41.242Z,22.33
2017-09-26T02:30:08.883Z,25.47
2017-09-26T02:32:36.447Z,23.53
2017-09-26T02:35:04.006Z,23.80
2017-09-26T02:37:31.904Z,22.70
2017-09-26T02:39:59.535Z,23.30
2017-09-26T02:42:27.213Z,24.47
2017-09-26T02:44:54.755Z,23.70
2017-09-26T02:47:22.304Z,24.20
2017-09-26T02:49:49.860Z,24.07
2017-09-26T02:52:17.438Z,24.27
2017-09-26T02:54:44.984Z,24.57
2017-09-26T02:57:12.562Z,23.53
2017-09-26T02:59:40.130Z,24.70
2017-09-26T03:02:07.694Z,22.53
2017-09-26T03:04:35.346Z,23.23
2017-09-26T03:07:02.914Z,23.83
2017-09-26T03:09:30.589Z,23.50
2017-09-26T03:11:58.138Z,24.63
2017-09-26T03:14:25.895Z,22.33
2017-09-26T03:16:53.454Z,23.07
2017-09-26T03:19:20.998Z,23.33
2017-09-26T03:21:48.579Z,23.63
2017-09-26T03:24:16.124Z,21.00
2017-09-26T03:26:43.699Z,22.30
2017-09-26T03:29:11.258Z,25.10
2017-09-26T03:31:44.582Z,21.00
2017-09-26T03:34:12.134Z,22.13
2017-09-26T03:36:39.698Z,22.40
2017-09-26T03:39:07.247Z,21.60
2017-09-26T03:41:34.829Z,23.70
2017-09-26T03:44:02.379Z,21.90
2017-09-26T03:46:29.930Z,22.37
2017-09-26T03:48:57.479Z,21.73
2017-09-26T03:51:25.021Z,23.47
2017-09-26T03:53:52.563Z,20.77
2017-09-26T03:56:20.214Z,23.20
2017-09-26T03:58:48.525Z,21.87
2017-09-26T04:01:16.068Z,23.60
2017-09-26T04:03:48.584Z,22.80
2017-09-26T04:06:16.187Z,23.50
2017-09-26T04:08:44.522Z,21.47
2017-09-26T04:11:12.062Z,22.27
2017-09-26T04:13:39.643Z,22.40
2017-09-26T04:16:07.192Z,26.10
2017-09-26T04:18:34.734Z,31.17
2017-09-26T04:21:02.292Z,34.77
2017-09-26T04:23:29.839Z,26.07
2017-09-26T04:25:58.159Z,22.77
2017-09-26T04:28:25.822Z,25.03
2017-09-26T04:30:53.404Z,24.67
2017-09-26T04:33:20.942Z,23.77
2017-09-26T04:35:49.435Z,24.60
2017-09-26T04:38:17.234Z,23.60
2017-09-26T04:40:45.579Z,24.13
2017-09-26T04:43:13.119Z,24.57
2017-09-26T04:45:40.688Z,23.50
2017-09-26T04:48:08.258Z,25.33
2017-09-26T04:50:35.820Z,23.80
2017-09-26T04:53:03.378Z,23.17
2017-09-26T04:55:30.923Z,23.83
2017-09-26T04:57:58.494Z,24.47
2017-09-26T05:00:26.043Z,25.17
2017-09-26T05:02:53.706Z,23.10
2017-09-26T05:05:21.254Z,22.63
2017-09-26T05:07:48.846Z,23.87
2017-09-26T05:10:16.406Z,24.47
2017-09-26T05:12:43.995Z,22.87
2017-09-26T05:15:11.547Z,23.67
2017-09-26T05:17:39.863Z,22.73
2017-09-26T05:20:07.467Z,23.20
2017-09-26T05:22:35.012Z,25.77
2017-09-26T05:25:02.590Z,22.67
2017-09-26T05:27:30.150Z,21.73
2017-09-26T05:29:57.736Z,24.50
2017-09-26T05:32:26.047Z,24.97
2017-09-26T05:34:54.466Z,24.27
2017-09-26T05:37:25.366Z,27.23
2017-09-26T05:39:53.787Z,23.83
2017-09-26T05:42:21.331Z,22.10
2017-09-26T05:44:48.898Z,24.97
2017-09-26T05:47:16.443Z,24.03
2017-09-26T05:49:44.030Z,24.20
2017-09-26T05:52:11.590Z,24.60
2017-09-26T05:54:39.266Z,24.20
2017-09-26T05:57:06.915Z,22.63
2017-09-26T05:59:34.571Z,21.70
2017-09-26T06:02:02.147Z,22.00
2017-09-26T06:04:30.698Z,24.40
2017-09-26T06:06:58.290Z,23.50
2017-09-26T06:09:25.850Z,23.80
2017-09-26T06:11:53.411Z,24.23
2017-09-26T06:14:20.971Z,23.37
2017-09-26T06:16:48.506Z,23.07
2017-09-26T06:19:16.094Z,22.20
2017-09-26T06:21:43.626Z,23.40
2017-09-26T06:24:11.162Z,24.70
2017-09-26T06:29:33.995Z,23.47
2017-09-26T06:32:01.528Z,20.90
2017-09-26T06:34:29.068Z,22.80
2017-09-26T06:36:57.425Z,23.10
2017-09-26T06:39:25.046Z,23.00
2017-09-26T06:41:52.711Z,24.60
2017-09-26T06:44:20.254Z,25.40
2017-09-26T06:46:47.851Z,22.37
2017-09-26T06:49:15.387Z,24.70
2017-09-26T06:51:42.961Z,23.13
2017-09-26T06:54:10.508Z,26.10
2017-09-26T06:56:38.051Z,23.37
2017-09-26T06:59:05.582Z,24.40
2017-09-26T07:01:33.911Z,24.80
2017-09-26T07:04:01.466Z,23.07
2017-09-26T07:06:28.999Z,24.10
2017-09-26T07:08:57.334Z,26.90
2017-09-26T07:11:24.975Z,25.60
2017-09-26T07:13:52.547Z,23.90
2017-09-26T07:16:26.736Z,24.93
2017-09-26T07:18:54.416Z,24.80
2017-09-26T07:21:21.946Z,25.57
2017-09-26T07:23:49.478Z,24.73
2017-09-26T07:26:17.010Z,24.20
2017-09-26T07:28:44.543Z,22.30
2017-09-26T07:31:12.110Z,23.70
2017-09-26T07:33:39.652Z,23.80
2017-09-26T07:36:07.237Z,24.03
2017-09-26T07:38:34.783Z,23.77
2017-09-26T07:41:02.362Z,22.97
2017-09-26T07:43:29.895Z,26.37
2017-09-26T07:45:57.479Z,23.93
2017-09-26T07:48:25.014Z,24.60
2017-09-26T07:50:52.550Z,26.53
2017-09-26T07:53:20.875Z,24.17
2017-09-26T07:55:48.447Z,26.37
2017-09-26T07:58:16.207Z,26.57
2017-09-26T08:00:44.210Z,25.07
2017-09-26T08:03:11.839Z,26.50
2017-09-26T08:05:40.775Z,25.93
2017-09-26T08:08:08.839Z,25.40
2017-09-26T08:10:36.467Z,25.47
2017-09-26T08:13:04.004Z,25.60
2017-09-26T08:15:31.587Z,25.67
2017-09-26T08:17:59.147Z,27.73
2017-09-26T08:20:26.707Z,25.03
2017-09-26T08:22:54.880Z,27.07
2017-09-26T08:25:22.414Z,25.20
2017-09-26T08:27:50.819Z,26.13
2017-09-26T08:30:18.383Z,25.30
2017-09-26T08:32:45.921Z,23.97
2017-09-26T08:35:13.458Z,24.53
2017-09-26T08:37:41.783Z,25.07
2017-09-26T08:40:09.324Z,24.30
2017-09-26T08:42:36.867Z,24.00
2017-09-26T08:45:05.286Z,25.87
2017-09-26T08:47:32.955Z,26.30
2017-09-26T08:50:00.611Z,26.73
2017-09-26T08:52:28.171Z,23.83
2017-09-26T08:54:55.836Z,24.37
2017-09-26T08:57:23.375Z,24.83
2017-09-26T08:59:50.962Z,25.43
2017-09-26T09:02:18.515Z,23.67
2017-09-26T09:04:46.083Z,25.40
2017-09-26T09:07:13.611Z,24.40
2017-09-26T09:09:41.198Z,25.40
2017-09-26T09:12:08.888Z,23.97
2017-09-26T09:14:36.418Z,24.20
2017-09-26T09:17:03.978Z,25.60
2017-09-26T09:19:32.370Z,25.00
2017-09-26T09:22:00.027Z,24.40
2017-09-26T09:24:27.786Z,23.77
2017-09-26T09:26:55.364Z,24.43
2017-09-26T09:29:22.910Z,26.77
2017-09-26T09:31:50.574Z,23.93
2017-09-26T09:34:18.108Z,26.50
2017-09-26T09:36:45.651Z,26.83
2017-09-26T09:39:13.971Z,27.87
2017-09-26T09:41:41.502Z,27.40
2017-09-26T09:44:09.818Z,30.50
2017-09-26T09:46:37.351Z,26.73
2017-09-26T09:49:04.935Z,28.70
2017-09-26T09:51:32.463Z,27.90
2017-09-26T09:54:00.023Z,25.90
2017-09-26T09:56:28.331Z,26.97
2017-09-26T09:58:55.897Z,25.00
2017-09-26T10:01:23.437Z,28.77
2017-09-26T10:03:51.118Z,25.20
2017-09-26T10:06:18.678Z,25.23
2017-09-26T10:08:46.214Z,25.17
2017-09-26T10:11:13.758Z,25.07
2017-09-26T10:13:42.072Z,26.50
2017-09-26T10:16:09.611Z,27.27
2017-09-26T10:18:37.191Z,27.23
2017-09-26T10:21:04.767Z,26.17
2017-09-26T10:23:32.300Z,26.97
2017-09-26T10:25:59.881Z,29.00
2017-09-26T10:28:27.438Z,25.03
2017-09-26T10:30:55.102Z,28.63
2017-09-26T10:33:22.666Z,28.70
2017-09-26T10:35:50.235Z,26.30
2017-09-26T10:38:17.950Z,28.47
2017-09-26T10:40:46.266Z,27.70
2017-09-26T10:43:13.840Z,27.60
2017-09-26T10:45:41.371Z,29.23
2017-09-26T10:48:08.930Z,27.77
2017-09-26T10:50:36.474Z,27.70
2017-09-26T10:53:04.799Z,30.07
2017-09-26T10:55:32.331Z,28.73
2017-09-26T10:57:59.890Z,27.97
2017-09-26T11:00:27.471Z,28.90
2017-09-26T11:02:55.031Z,28.77
2017-09-26T11:05:22.566Z,26.90
2017-09-26T11:07:50.150Z,27.20
2017-09-26T11:10:17.741Z,27.00
2017-09-26T11:12:45.270Z,28.13
2017-09-26T11:15:12.809Z,28.90
2017-09-26T11:17:40.340Z,28.43
2017-09-26T11:20:07.875Z,28.77
2017-09-26T11:22:35.523Z,26.63
2017-09-26T11:25:03.082Z,28.80
2017-09-26T11:27:30.615Z,30.10
2017-09-26T11:29:58.147Z,29.37
2017-09-26T11:32:26.488Z,27.80
2017-09-26T11:34:54.022Z,28.30
2017-09-26T11:37:21.563Z,26.23
2017-09-26T11:39:49.970Z,27.50
2017-09-26T11:42:17.506Z,28.77
2017-09-26T11:44:45.802Z,27.87
2017-09-26T11:47:13.329Z,29.43
2017-09-26T11:49:41.626Z,30.37
2017-09-26T11:52:09.943Z,28.60
2017-09-26T11:54:37.478Z,29.10
2017-09-26T11:57:05.015Z,29.03
2017-09-26T11:59:33.435Z,29.00
2017-09-26T12:02:01.008Z,31.00
2017-09-26T12:04:28.566Z,29.73
2017-09-26T12:06:56.103Z,29.80
2017-09-26T12:09:23.680Z,30.60
2017-09-26T12:11:51.248Z,27.50
2017-09-26T12:14:18.783Z,30.43
2017-09-26T12:16:46.315Z,26.97
2017-09-26T12:19:14.642Z,29.57
2017-09-26T12:21:42.195Z,27.93
2017-09-26T12:24:09.726Z,31.13
2017-09-26T12:26:38.022Z,28.97
2017-09-26T12:29:05.594Z,27.57
2017-09-26T12:31:33.125Z,28.03
2017-09-26T12:34:01.436Z,26.53
2017-09-26T12:36:29.099Z,32.37
2017-09-26T12:38:56.636Z,27.77
2017-09-26T12:41:24.230Z,28.57
2017-09-26T12:43:51.766Z,29.20
2017-09-26T12:46:19.338Z,27.17
2017-09-26T12:48:46.907Z,30.47
2017-09-26T12:51:14.439Z,31.10
2017-09-26T12:53:42.766Z,28.80
2017-09-26T12:56:11.437Z,30.20
2017-09-26T12:58:39.003Z,27.33
2017-09-26T13:01:06.531Z,29.40
2017-09-26T13:03:34.110Z,29.60
2017-09-26T13:06:01.651Z,28.93
2017-09-26T13:08:29.211Z,29.20
2017-09-26T13:10:56.822Z,28.00
2017-09-26T13:13:24.457Z,28.70
2017-09-26T13:15:52.049Z,27.10
2017-09-26T13:18:19.593Z,28.20
2017-09-26T13:20:47.903Z,24.90
2017-09-26T13:23:15.457Z,24.30
2017-09-26T13:25:42.998Z,24.80
2017-09-26T13:28:11.299Z,20.77
2017-09-26T13:30:38.835Z,22.13
2017-09-26T13:33:07.258Z,21.70
2017-09-26T13:35:34.811Z,20.87
2017-09-26T13:38:02.444Z,21.80
2017-09-26T13:40:30.043Z,22.53
2017-09-26T13:42:57.611Z,23.50
2017-09-26T13:45:25.160Z,21.23
2017-09-26T13:47:52.708Z,21.13
2017-09-26T13:50:20.286Z,22.80
2017-09-26T13:52:47.822Z,22.50
2017-09-26T13:55:15.387Z,24.13
2017-09-26T13:57:42.927Z,23.60
2017-09-26T14:00:11.272Z,25.10
2017-09-26T14:02:38.811Z,22.07
2017-09-26T14:05:06.394Z,23.93
2017-09-26T14:07:33.943Z,23.07
2017-09-26T14:10:01.511Z,24.03
2017-09-26T14:12:29.335Z,23.87
2017-09-26T14:14:59.440Z,25.23
2017-09-26T14:17:27.738Z,23.77
2017-09-26T14:19:55.330Z,22.53
2017-09-26T14:22:22.894Z,24.80
2017-09-26T14:24:50.450Z,23.67
2017-09-26T14:27:17.986Z,23.67
2017-09-26T14:29:45.566Z,24.83
2017-09-26T14:32:13.121Z,25.23
2017-09-26T14:34:40.688Z,23.47
2017-09-26T14:37:08.351Z,23.27
2017-09-26T14:39:35.887Z,22.93
2017-09-26T14:42:03.445Z,22.83
2017-09-26T14:44:30.988Z,23.87
2017-09-26T14:46:59.423Z,23.17
2017-09-26T14:49:26.954Z,23.43
2017-09-26T14:51:54.541Z,24.00
2017-09-26T14:54:22.076Z,22.40
2017-09-26T14:56:49.660Z,23.70
2017-09-26T14:59:17.219Z,23.87
2017-09-26T15:01:44.779Z,24.03
2017-09-26T15:04:12.480Z,24.00
2017-09-26T15:06:40.013Z,22.90
2017-09-26T15:09:07.668Z,24.10
2017-09-26T15:11:35.240Z,25.03
2017-09-26T15:14:02.834Z,24.33
2017-09-26T15:16:30.377Z,25.67
2017-09-26T15:18:57.964Z,25.17
2017-09-26T15:21:25.611Z,25.77
2017-09-26T15:23:53.143Z,24.80
2017-09-26T15:26:20.785Z,24.83
2017-09-26T15:28:48.341Z,24.90
2017-09-26T15:31:15.947Z,25.00
2017-09-26T15:33:43.503Z,24.37
2017-09-26T15:36:11.213Z,26.17
2017-09-26T15:38:39.531Z,24.60
2017-09-26T15:41:07.105Z,25.70
2017-09-26T15:43:34.654Z,24.00
2017-09-26T15:46:02.218Z,23.50
2017-09-26T15:48:29.842Z,24.83
2017-09-26T15:50:58.263Z,25.70
2017-09-26T15:53:25.884Z,23.87
2017-09-26T15:55:54.217Z,25.60
2017-09-26T15:58:21.977Z,23.30
2017-09-26T16:00:49.550Z,24.17
2017-09-26T16:03:17.212Z,25.50
2017-09-26T16:05:44.802Z,25.33
2017-09-26T16:08:12.366Z,27.37
2017-09-26T16:10:40.684Z,27.50
2017-09-26T16:13:08.267Z,27.53
2017-09-26T16:15:35.822Z,29.33
2017-09-26T16:18:03.388Z,28.60
2017-09-26T16:20:30.950Z,27.67
2017-09-26T16:22:59.351Z,27.03
2017-09-26T16:25:26.895Z,28.47
2017-09-26T16:27:54.463Z,26.17
2017-09-26T16:30:21.994Z,29.90
2017-09-26T16:32:49.579Z,29.03
2017-09-26T16:35:17.115Z,29.80
2017-09-26T16:37:44.683Z,29.07
2017-09-26T16:40:12.215Z,28.70
2017-09-26T16:42:40.637Z,29.87
2017-09-26T16:45:08.170Z,29.37
2017-09-26T16:47:35.766Z,29.80
2017-09-26T16:50:03.326Z,29.30
2017-09-26T16:52:30.863Z,31.20
2017-09-26T16:54:58.426Z,31.00
2017-09-26T16:57:25.970Z,30.10
2017-09-26T16:59:53.562Z,29.80
2017-09-26T17:02:21.099Z,28.00
2017-09-26T17:04:48.701Z,28.93
2017-09-26T17:07:16.243Z,28.07
2017-09-26T17:09:43.918Z,29.97
2017-09-26T17:12:11.458Z,30.00
2017-09-26T17:14:39.034Z,27.93
2017-09-26T17:17:06.565Z,29.17
2017-09-26T17:19:34.451Z,29.93
2017-09-26T17:22:01.991Z,28.90
2017-09-26T17:24:29.568Z,31.50
2017-09-26T17:26:57.113Z,31.67
2017-09-26T17:29:24.703Z,30.17
2017-09-26T17:31:52.267Z,29.37
2017-09-26T17:34:19.802Z,28.53
2017-09-26T17:36:47.349Z,30.07
2017-09-26T17:42:08.634Z,32.20
2017-09-26T17:44:36.170Z,31.63
2017-09-26T17:47:03.739Z,32.50
2017-09-26T17:49:31.282Z,31.33
2017-09-26T17:51:58.835Z,31.50
2017-09-26T17:54:26.942Z,33.20
2017-09-26T17:56:54.476Z,32.27
2017-09-26T17:59:22.164Z,32.97
2017-09-26T18:01:49.718Z,32.60
2017-09-26T18:04:17.255Z,31.50
2017-09-26T18:06:44.814Z,30.10
2017-09-26T18:09:12.403Z,30.30
2017-09-26T18:11:39.967Z,29.73
2017-09-26T18:14:07.526Z,30.37
2017-09-26T18:16:35.082Z,29.87
2017-09-26T18:19:02.638Z,28.93
2017-09-26T18:21:30.188Z,30.50
2017-09-26T18:23:57.762Z,28.57
2017-09-26T18:26:25.300Z,28.33
2017-09-26T18:28:52.851Z,27.27
2017-09-26T18:31:21.147Z,26.57
2017-09-26T18:33:48.721Z,25.63
2017-09-26T18:36:16.265Z,24.87
2017-09-26T18:38:43.842Z,24.60
2017-09-26T18:41:11.411Z,23.33
2017-09-26T18:43:38.986Z,22.77
2017-09-26T18:46:06.522Z,20.23
2017-09-26T18:48:34.110Z,16.97
2017-09-26T18:51:01.670Z,16.17
2017-09-26T18:53:29.220Z,15.10
2017-09-26T18:55:56.752Z,14.77
2017-09-26T18:58:24.291Z,12.10
2017-09-26T19:00:52.623Z,12.10
2017-09-26T19:03:20.179Z,11.17
2017-09-26T19:05:47.743Z,10.80
2017-09-26T19:08:15.379Z,11.70
2017-09-26T19:10:42.947Z,10.93
2017-09-26T19:13:10.487Z,12.20
2017-09-26T19:15:38.093Z,12.10
2017-09-26T19:18:05.642Z,11.53
2017-09-26T19:20:33.232Z,12.43
2017-09-26T19:23:00.839Z,13.40
2017-09-26T19:25:28.420Z,12.57
2017-09-26T19:27:56.846Z,13.60
2017-09-26T19:30:24.458Z,12.97
2017-09-26T19:32:52.824Z,13.20
2017-09-26T19:35:20.456Z,13.60
2017-09-26T19:37:48.051Z,14.13
2017-09-26T19:40:15.620Z,13.10
2017-09-26T19:42:44.016Z,14.30
2017-09-26T19:45:11.591Z,14.93
2017-09-26T19:47:39.226Z,14.87
2017-09-26T19:50:07.602Z,15.80
2017-09-26T19:52:35.984Z,16.27
2017-09-26T19:55:04.326Z,16.33
2017-09-26T19:57:31.914Z,16.33
2017-09-26T19:59:59.484Z,16.47
2017-09-26T20:02:27.838Z,15.67
2017-09-26T20:04:56.922Z,16.93
2017-09-26T20:07:24.523Z,15.90
2017-09-26T20:09:52.883Z,16.97
2017-09-26T20:12:20.515Z,17.00
2017-09-26T20:14:48.065Z,19.00
2017-09-26T20:17:15.629Z,18.10
2017-09-26T20:19:43.337Z,20.10
2017-09-26T20:22:10.877Z,20.40
2017-09-26T20:24:38.463Z,20.13
2017-09-26T20:27:06.003Z,18.40
2017-09-26T20:29:33.568Z,18.37
2017-09-26T20:32:01.108Z,19.00
2017-09-26T20:34:28.663Z,19.17
2017-09-26T20:36:56.236Z,18.10
2017-09-26T20:39:23.806Z,18.50
2017-09-26T20:41:51.444Z,19.37
2017-09-26T20:44:18.974Z,17.40
2017-09-26T20:46:47.283Z,18.30
2017-09-26T20:49:14.850Z,18.33
2017-09-26T20:51:42.507Z,19.37
2017-09-26T20:54:10.074Z,19.50
2017-09-26T20:56:37.638Z,19.47
2017-09-26T20:59:05.200Z,19.43
2017-09-26T21:01:32.755Z,19.07
2017-09-26T21:04:00.315Z,20.33
2017-09-26T21:06:27.979Z,18.90
2017-09-26T21:08:55.509Z,19.13
2017-09-26T21:11:23.099Z,19.97
2017-09-26T21:13:50.635Z,20.73
2017-09-26T21:16:18.323Z,20.87
2017-09-26T21:18:45.863Z,23.00
2017-09-26T21:21:13.395Z,22.13
2017-09-26T21:23:41.699Z,22.17
2017-09-26T21:26:09.286Z,22.53
2017-09-26T21:28:36.848Z,22.13
2017-09-26T21:31:04.407Z,22.40
2017-09-26T21:33:31.970Z,22.10
2017-09-26T21:35:59.527Z,23.50
2017-09-26T21:38:27.265Z,23.57
2017-09-26T21:40:54.854Z,23.97
2017-09-26T21:43:22.422Z,23.23
2017-09-26T21:45:49.954Z,23.60
2017-09-26T21:48:17.677Z,23.93
2017-09-26T21:50:45.991Z,24.27
2017-09-26T21:53:13.522Z,24.33
2017-09-26T21:55:41.134Z,25.60
2017-09-26T21:58:08.666Z,24.90
2017-09-26T22:00:36.985Z,24.23
2017-09-26T22:03:04.525Z,26.23
2017-09-26T22:05:32.099Z,24.97
2017-09-26T22:07:59.663Z,23.00
2017-09-26T22:10:27.258Z,24.73
2017-09-26T22:12:54.817Z,27.27
2017-09-26T22:15:22.355Z,24.90
2017-09-26T22:17:49.887Z,25.17
2017-09-26T22:20:17.418Z,27.43
2017-09-26T22:22:45.738Z,25.20
2017-09-26T22:25:13.403Z,24.80
2017-09-26T22:27:40.959Z,24.80
2017-09-26T22:30:08.494Z,24.67
2017-09-26T22:32:36.022Z,23.87
2017-09-26T22:35:04.323Z,23.80
2017-09-26T22:37:32.618Z,23.57
2017-09-26T22:40:00.155Z,22.57
2017-09-26T22:42:28.477Z,20.60
2017-09-26T22:44:56.034Z,24.57
2017-09-26T22:47:23.607Z,23.43
2017-09-26T22:49:51.159Z,23.43
2017-09-26T22:52:18.719Z,23.37
2017-09-26T22:54:46.283Z,22.80
2017-09-26T22:57:13.943Z,23.53
2017-09-26T22:59:41.474Z,23.03
2017-09-26T23:02:09.020Z,26.40
2017-09-26T23:04:37.338Z,25.17
2017-09-26T23:07:04.915Z,27.00
2017-09-26T23:09:33.380Z,24.80
2017-09-26T23:12:00.954Z,26.80
2017-09-26T23:14:28.519Z,26.53
2017-09-26T23:16:56.059Z,25.47
2017-09-26T23:19:23.616Z,28.57
2017-09-26T23:21:51.210Z,27.23
2017-09-26T23:24:18.746Z,26.43
2017-09-26T23:26:46.282Z,30.40
2017-09-26T23:29:13.871Z,27.50
2017-09-26T23:31:41.410Z,29.47
2017-09-26T23:34:08.995Z,27.20
2017-09-26T23:36:36.557Z,25.60
2017-09-26T23:39:04.091Z,28.77
2017-09-26T23:41:31.648Z,29.30
2017-09-26T23:43:59.235Z,28.73
2017-09-26T23:46:26.802Z,27.17
2017-09-26T23:48:54.559Z,29.00
2017-09-26T23:51:22.095Z,27.40
2017-09-26T23:53:49.681Z,29.27
2017-09-26T23:56:17.346Z,29.43
2017-09-26T23:58:44.902Z,28.17
